** WELKOM OP ONZE WEBSITE MET ACTUELE WEERDATA VANUIT IZEGEM **
Het weer levert geen direct gevaar op.    Er zijn geen waarschuwingen afgegeven.

Weercam te Izegem Meer informatie Weercam te Izegem


Lokaal brand risico:
FWI


Regionaal brand risico: Meer informatie



METAR rapporten vliegvelden

   
EBOS - Oostende Airport, Belgium
Afstand tot: NW 39 km
Gewijzigd: 19-08-2018 14:50
Gedeeltelijk bewolkt  
Gedeeltelijk bewolkt  
   Wind: ZW 27.8 km/h
Wind: ZW 27.8 km/h
Temperatuur: 23°C
Dauwpunt: 15°C
Vochtigheid: 61%
Barometer: 1020 hPa
Bewolking: Partly Cloudy
Zicht: meer dan 10 km
Bewolking: Gedeeltelijk bewolkt 3000 ft
EBOS 191250Z 22015KT 9999 SCT030 23/15 Q1020 NOSIG
LFQQ - Lille/Lesquin, France
Afstand tot: Z 40 km
Gewijzigd: 19-08-2018 15:00
Grotendeels bewolkt  
Grotendeels bewolkt  
   Wind: ZZW 24.1 km/h
Wind: ZZW 24.1 km/h
Temperatuur: 22°C
Dauwpunt: 14°C
Vochtigheid: 61%
Barometer: 1021 hPa
Bewolking: Mostly Cloudy
Zicht: meer dan 10 km
Bewolking: Grotendeels bewolkt 2500 ft,
Grotendeels bewolkt 10000 ft
LFQQ 191300Z AUTO 20013KT 9999 BKN025 BKN100 22/14 Q1021 BECMG
EBFN - Koksijde (bel-Af, Belgium
Afstand tot: WNW 43 km
Gewijzigd: 19-08-2018 14:55
Licht bewolkt  
Licht bewolkt  
   Wind: WZW 31.5 km/h
Wind: WZW 31.5 km/h
Temperatuur: 23°C
Dauwpunt: 15°C
Vochtigheid: 61%
Barometer: 1020 hPa
Bewolking: Few Clouds
Zicht: meer dan 10 km
Bewolking: Licht bewolkt 3000 ft
EBFN 191255Z AUTO 24017KT 9999 FEW030/// 23/15 Q1020 BLU
EBCV - Chievres Ab, Belgium
Afstand tot: ZO 59 km
Gewijzigd: 19-08-2018 14:55
Grotendeels bewolkt  
Grotendeels bewolkt  
   Wind: ZW 24.1 km/h
Wind: ZW 24.1 km/h
Temperatuur: 22°C
Dauwpunt: 15°C
Vochtigheid: 65%
Barometer: 1021 hPa
Bewolking: Mostly Cloudy
Zicht: meer dan 10 km
Bewolking: Grotendeels bewolkt 2600 ft
EBCV 191255Z AUTO 22013KT 9999 BKN026/// 22/15 Q1021 BLU
EHFS - Vlissingen, Netherlands
Afstand tot: NNO 65 km
Gewijzigd: 19-08-2018 14:55
Grotendeels bewolkt  
Grotendeels bewolkt  
   Wind: ZZW 35.2 km/h
Wind: ZZW 35.2 km/h
Temperatuur: 23°C
Dauwpunt: 17°C
Vochtigheid: 69%
Barometer: 1019 hPa
Bewolking: Mostly Cloudy
Zicht: meer dan 10 km
Bewolking: Grotendeels bewolkt 2400 ft,
Grotendeels bewolkt 3100 ft
EHFS 191255Z AUTO 21019KT 9999 BKN024/// BKN031/// 23/17 Q1019 W///H///
EBBR - Brussels Nationa, Belgium
Afstand tot: O 91 km
Gewijzigd: 19-08-2018 14:50
Licht bewolkt  
Licht bewolkt  
   Wind: ZW 16.7 km/h
Wind: ZW 16.7 km/h
Temperatuur: 23°C
Dauwpunt: 15°C
Vochtigheid: 61%
Barometer: 1021 hPa
Bewolking: Few Clouds
Zicht: meer dan 10 km
Bewolking: Licht bewolkt 3300 ft
EBBR 191250Z 23009KT 200V270 9999 FEW033 23/15 Q1021 NOSIG
EBAW - Antwerp/Deurne, Belgium
Afstand tot: ONO 94 km
Gewijzigd: 19-08-2018 14:50
Grotendeels bewolkt  
Grotendeels bewolkt  
   Wind: ZW 16.7 km/h
Wind: ZW 16.7 km/h
Temperatuur: 23°C
Dauwpunt: 14°C
Vochtigheid: 57%
Barometer: 1020 hPa
Bewolking: Mostly Cloudy
Zicht: meer dan 10 km
Bewolking: Grotendeels bewolkt 2800 ft
EBAW 191250Z 22009KT 190V250 9999 BKN028 23/14 Q1020 NOSIG
EHWO - Woensdrecht Rnla, Netherlands
Afstand tot: NO 98 km
Gewijzigd: 19-08-2018 14:55
Gedeeltelijk bewolkt  
Gedeeltelijk bewolkt  
   Wind: ZW 22.2 km/h
Wind: ZW 22.2 km/h
Temperatuur: 22°C
Dauwpunt: 15°C
Vochtigheid: 65%
Barometer: 1019 hPa
Bewolking: Partly Cloudy
Zicht: meer dan 10 km
Bewolking: Gedeeltelijk bewolkt 2600 ft
EHWO 191255Z AUTO 22012KT 160V270 9999 SCT026 22/15 Q1019 BLU
EBCI - Charleroi/Gossel, Belgium
Afstand tot: OZO 102 km
Gewijzigd: 19-08-2018 14:50
Licht bewolkt  
Licht bewolkt  
   Wind: WZW 22.2 km/h
Wind: WZW 22.2 km/h
Temperatuur: 23°C
Dauwpunt: 14°C
Vochtigheid: 57%
Barometer: 1022 hPa
Bewolking: Few Clouds
Zicht: meer dan 10 km
Bewolking: Licht bewolkt 2800 ft
EBCI 191250Z 24012KT 9999 FEW028 23/14 Q1022 NOSIG

Script ontwikkeld door  Saratoga-weather.org Aangepast voor de template door  Weerstation Leuven